sensor_id;sensor_type;location;lat;lon;timestamp;temperature;humidity
49503;DHT22;35409;48.776;9.204;2024-02-14T00:01:54;1.60;99.90
49503;DHT22;35409;48.776;9.204;2024-02-14T00:04:20;1.60;99.90
49503;DHT22;35409;48.776;9.204;2024-02-14T00:06:47;1.60;99.90
49503;DHT22;35409;48.776;9.204;2024-02-14T00:09:12;1.60;99.90
49503;DHT22;35409;48.776;9.204;2024-02-14T00:11:38;1.60;99.90
49503;DHT22;35409;48.776;9.204;2024-02-14T00:14:03;1.60;99.90
49503;DHT22;35409;48.776;9.204;2024-02-14T00:16:29;1.60;99.90
49503;DHT22;35409;48.776;9.204;2024-02-14T00:18:58;1.60;99.90
49503;DHT22;35409;48.776;9.204;2024-02-14T00:21:23;1.60;99.90
49503;DHT22;35409;48.776;9.204;2024-02-14T00:23:50;1.60;99.90
49503;DHT22;35409;48.776;9.204;2024-02-14T00:26:16;1.60;99.90
49503;DHT22;35409;48.776;9.204;2024-02-14T00:28:41;1.60;99.90
49503;DHT22;35409;48.776;9.204;2024-02-14T00:31:07;1.50;99.90
49503;DHT22;35409;48.776;9.204;2024-02-14T00:33:33;1.60;99.90
49503;DHT22;35409;48.776;9.204;2024-02-14T00:35:58;1.70;99.90
49503;DHT22;35409;48.776;9.204;2024-02-14T00:38:24;1.80;99.90
49503;DHT22;35409;48.776;9.204;2024-02-14T00:40:50;1.90;99.90
49503;DHT22;35409;48.776;9.204;2024-02-14T00:43:15;2.00;99.90
49503;DHT22;35409;48.776;9.204;2024-02-14T00:45:41;2.00;99.90
49503;DHT22;35409;48.776;9.204;2024-02-14T00:48:07;2.10;99.90
49503;DHT22;35409;48.776;9.204;2024-02-14T00:50:33;2.10;99.90
49503;DHT22;35409;48.776;9.204;2024-02-14T00:52:59;2.20;99.90
49503;DHT22;35409;48.776;9.204;2024-02-14T00:55:25;2.30;99.90
49503;DHT22;35409;48.776;9.204;2024-02-14T00:57:51;2.30;99.90
49503;DHT22;35409;48.776;9.204;2024-02-14T01:00:17;2.40;99.90
49503;DHT22;35409;48.776;9.204;2024-02-14T01:02:43;2.50;99.90
49503;DHT22;35409;48.776;9.204;2024-02-14T01:05:09;2.60;99.90
49503;DHT22;35409;48.776;9.204;2024-02-14T01:07:35;2.60;99.90
49503;DHT22;35409;48.776;9.204;2024-02-14T01:10:01;2.70;99.90
49503;DHT22;35409;48.776;9.204;2024-02-14T01:12:27;2.80;99.90
49503;DHT22;35409;48.776;9.204;2024-02-14T01:14:55;2.90;99.90
49503;DHT22;35409;48.776;9.204;2024-02-14T01:17:20;2.90;99.90
49503;DHT22;35409;48.776;9.204;2024-02-14T01:19:46;3.00;99.90
49503;DHT22;35409;48.776;9.204;2024-02-14T01:22:12;3.00;99.90
49503;DHT22;35409;48.776;9.204;2024-02-14T01:24:42;3.00;99.90
49503;DHT22;35409;48.776;9.204;2024-02-14T01:27:08;3.00;99.90
49503;DHT22;35409;48.776;9.204;2024-02-14T01:29:34;3.00;99.90
49503;DHT22;35409;48.776;9.204;2024-02-14T01:31:59;3.10;99.90
49503;DHT22;35409;48.776;9.204;2024-02-14T01:34:25;3.10;99.90
49503;DHT22;35409;48.776;9.204;2024-02-14T01:36:51;3.20;99.90
49503;DHT22;35409;48.776;9.204;2024-02-14T01:39:17;3.30;99.90
49503;DHT22;35409;48.776;9.204;2024-02-14T01:41:47;3.40;99.90
49503;DHT22;35409;48.776;9.204;2024-02-14T01:44:14;3.50;99.90
49503;DHT22;35409;48.776;9.204;2024-02-14T01:46:41;3.60;99.90
49503;DHT22;35409;48.776;9.204;2024-02-14T01:49:08;3.80;99.90
49503;DHT22;35409;48.776;9.204;2024-02-14T01:51:35;3.90;99.90
49503;DHT22;35409;48.776;9.204;2024-02-14T01:54:02;4.00;99.90
49503;DHT22;35409;48.776;9.204;2024-02-14T01:56:29;4.10;99.90
49503;DHT22;35409;48.776;9.204;2024-02-14T01:58:56;4.20;99.90
49503;DHT22;35409;48.776;9.204;2024-02-14T02:01:22;4.40;99.90
49503;DHT22;35409;48.776;9.204;2024-02-14T02:03:49;4.50;99.90
49503;DHT22;35409;48.776;9.204;2024-02-14T02:06:14;4.60;99.90
49503;DHT22;35409;48.776;9.204;2024-02-14T02:08:43;4.80;99.90
49503;DHT22;35409;48.776;9.204;2024-02-14T02:11:09;4.90;99.90
49503;DHT22;35409;48.776;9.204;2024-02-14T02:13:34;5.00;99.90
49503;DHT22;35409;48.776;9.204;2024-02-14T02:16:00;5.00;99.90
49503;DHT22;35409;48.776;9.204;2024-02-14T02:18:29;5.10;99.90
49503;DHT22;35409;48.776;9.204;2024-02-14T02:20:56;5.10;99.90
49503;DHT22;35409;48.776;9.204;2024-02-14T02:23:28;5.20;99.90
49503;DHT22;35409;48.776;9.204;2024-02-14T02:25:53;5.30;99.90
49503;DHT22;35409;48.776;9.204;2024-02-14T02:28:19;5.30;99.90
49503;DHT22;35409;48.776;9.204;2024-02-14T02:30:45;5.40;99.90
49503;DHT22;35409;48.776;9.204;2024-02-14T02:33:11;5.50;99.90
49503;DHT22;35409;48.776;9.204;2024-02-14T02:35:39;5.50;99.90
49503;DHT22;35409;48.776;9.204;2024-02-14T02:38:05;5.40;99.90
49503;DHT22;35409;48.776;9.204;2024-02-14T02:40:30;5.40;99.90
49503;DHT22;35409;48.776;9.204;2024-02-14T02:42:56;5.30;99.90
49503;DHT22;35409;48.776;9.204;2024-02-14T02:45:22;5.20;99.90
49503;DHT22;35409;48.776;9.204;2024-02-14T02:47:47;5.20;99.90
49503;DHT22;35409;48.776;9.204;2024-02-14T02:50:13;5.10;99.90
49503;DHT22;35409;48.776;9.204;2024-02-14T02:52:39;5.00;99.90
49503;DHT22;35409;48.776;9.204;2024-02-14T02:55:06;5.00;99.90
49503;DHT22;35409;48.776;9.204;2024-02-14T02:57:32;5.00;99.90
49503;DHT22;35409;48.776;9.204;2024-02-14T02:59:59;4.90;99.90
49503;DHT22;35409;48.776;9.204;2024-02-14T03:02:24;4.90;99.90
49503;DHT22;35409;48.776;9.204;2024-02-14T03:04:51;4.90;99.90
49503;DHT22;35409;48.776;9.204;2024-02-14T03:07:19;4.80;99.90
49503;DHT22;35409;48.776;9.204;2024-02-14T03:09:44;4.80;99.90
49503;DHT22;35409;48.776;9.204;2024-02-14T03:12:10;4.80;99.90
49503;DHT22;35409;48.776;9.204;2024-02-14T03:14:36;4.80;99.90
49503;DHT22;35409;48.776;9.204;2024-02-14T03:17:04;4.90;99.90
49503;DHT22;35409;48.776;9.204;2024-02-14T03:19:30;4.80;99.90
49503;DHT22;35409;48.776;9.204;2024-02-14T03:25:20;4.70;99.90
49503;DHT22;35409;48.776;9.204;2024-02-14T03:27:48;4.50;99.90
49503;DHT22;35409;48.776;9.204;2024-02-14T03:30:19;4.30;99.90
49503;DHT22;35409;48.776;9.204;2024-02-14T03:32:49;4.20;99.90
49503;DHT22;35409;48.776;9.204;2024-02-14T03:35:15;4.10;99.90
49503;DHT22;35409;48.776;9.204;2024-02-14T03:37:42;4.00;99.90
49503;DHT22;35409;48.776;9.204;2024-02-14T03:40:09;4.00;99.90
49503;DHT22;35409;48.776;9.204;2024-02-14T03:42:35;3.90;99.90
49503;DHT22;35409;48.776;9.204;2024-02-14T03:45:01;3.90;99.90
49503;DHT22;35409;48.776;9.204;2024-02-14T03:47:34;3.90;99.90
49503;DHT22;35409;48.776;9.204;2024-02-14T03:50:00;4.00;99.90
49503;DHT22;35409;48.776;9.204;2024-02-14T03:52:27;4.10;99.90
49503;DHT22;35409;48.776;9.204;2024-02-14T03:54:53;4.20;99.90
49503;DHT22;35409;48.776;9.204;2024-02-14T03:57:18;4.30;99.90
49503;DHT22;35409;48.776;9.204;2024-02-14T03:59:44;4.40;99.90
49503;DHT22;35409;48.776;9.204;2024-02-14T04:02:10;4.50;99.90
49503;DHT22;35409;48.776;9.204;2024-02-14T04:04:37;4.60;99.90
49503;DHT22;35409;48.776;9.204;2024-02-14T04:07:03;4.80;99.90
49503;DHT22;35409;48.776;9.204;2024-02-14T04:09:29;4.90;99.90
49503;DHT22;35409;48.776;9.204;2024-02-14T04:11:54;5.00;99.90
49503;DHT22;35409;48.776;9.204;2024-02-14T04:14:20;5.20;99.90
49503;DHT22;35409;48.776;9.204;2024-02-14T04:16:46;5.40;99.90
49503;DHT22;35409;48.776;9.204;2024-02-14T04:19:12;5.60;99.90
49503;DHT22;35409;48.776;9.204;2024-02-14T04:21:38;5.70;99.90
49503;DHT22;35409;48.776;9.204;2024-02-14T04:24:04;5.80;99.90
49503;DHT22;35409;48.776;9.204;2024-02-14T04:26:30;5.90;99.90
49503;DHT22;35409;48.776;9.204;2024-02-14T04:28:55;6.00;99.90
49503;DHT22;35409;48.776;9.204;2024-02-14T04:31:21;6.10;99.90
49503;DHT22;35409;48.776;9.204;2024-02-14T04:33:47;6.10;99.90
49503;DHT22;35409;48.776;9.204;2024-02-14T04:36:20;6.10;99.90
49503;DHT22;35409;48.776;9.204;2024-02-14T04:38:49;6.20;99.90
49503;DHT22;35409;48.776;9.204;2024-02-14T04:41:14;6.20;99.90
49503;DHT22;35409;48.776;9.204;2024-02-14T04:43:40;6.10;99.90
49503;DHT22;35409;48.776;9.204;2024-02-14T04:46:06;6.10;99.90
49503;DHT22;35409;48.776;9.204;2024-02-14T04:48:33;6.10;99.90
49503;DHT22;35409;48.776;9.204;2024-02-14T04:50:58;6.10;99.90
49503;DHT22;35409;48.776;9.204;2024-02-14T04:53:24;6.10;99.90
49503;DHT22;35409;48.776;9.204;2024-02-14T04:55:50;6.10;99.90
49503;DHT22;35409;48.776;9.204;2024-02-14T04:58:16;6.20;99.90
49503;DHT22;35409;48.776;9.204;2024-02-14T05:00:42;6.20;99.90
49503;DHT22;35409;48.776;9.204;2024-02-14T05:03:07;6.20;99.90
49503;DHT22;35409;48.776;9.204;2024-02-14T05:05:35;6.30;99.90
49503;DHT22;35409;48.776;9.204;2024-02-14T05:08:01;6.40;99.90
49503;DHT22;35409;48.776;9.204;2024-02-14T05:10:28;6.40;99.90
49503;DHT22;35409;48.776;9.204;2024-02-14T05:12:54;6.50;99.90
49503;DHT22;35409;48.776;9.204;2024-02-14T05:15:19;6.50;99.90
49503;DHT22;35409;48.776;9.204;2024-02-14T05:17:45;6.50;99.90
49503;DHT22;35409;48.776;9.204;2024-02-14T05:20:11;6.40;99.90
49503;DHT22;35409;48.776;9.204;2024-02-14T05:22:37;6.40;99.90
49503;DHT22;35409;48.776;9.204;2024-02-14T05:25:04;6.50;99.90
49503;DHT22;35409;48.776;9.204;2024-02-14T05:27:33;6.50;99.90
49503;DHT22;35409;48.776;9.204;2024-02-14T05:29:59;6.50;99.90
49503;DHT22;35409;48.776;9.204;2024-02-14T05:32:24;6.50;99.90
49503;DHT22;35409;48.776;9.204;2024-02-14T05:34:53;6.50;99.90
49503;DHT22;35409;48.776;9.204;2024-02-14T05:37:19;6.50;99.90
49503;DHT22;35409;48.776;9.204;2024-02-14T05:39:45;6.40;99.90
49503;DHT22;35409;48.776;9.204;2024-02-14T05:42:11;6.40;99.90
49503;DHT22;35409;48.776;9.204;2024-02-14T05:44:37;6.30;99.90
49503;DHT22;35409;48.776;9.204;2024-02-14T05:47:03;6.30;99.90
49503;DHT22;35409;48.776;9.204;2024-02-14T05:49:28;6.30;99.90
49503;DHT22;35409;48.776;9.204;2024-02-14T05:51:54;6.30;99.90
49503;DHT22;35409;48.776;9.204;2024-02-14T05:54:19;6.30;99.90
49503;DHT22;35409;48.776;9.204;2024-02-14T05:56:46;6.20;99.90
49503;DHT22;35409;48.776;9.204;2024-02-14T05:59:11;6.20;99.90
49503;DHT22;35409;48.776;9.204;2024-02-14T06:01:37;6.20;99.90
49503;DHT22;35409;48.776;9.204;2024-02-14T06:04:03;6.20;99.90
49503;DHT22;35409;48.776;9.204;2024-02-14T06:06:28;6.10;99.90
49503;DHT22;35409;48.776;9.204;2024-02-14T06:08:54;6.10;99.90
49503;DHT22;35409;48.776;9.204;2024-02-14T06:11:20;6.00;99.90
49503;DHT22;35409;48.776;9.204;2024-02-14T06:13:47;6.00;99.90
49503;DHT22;35409;48.776;9.204;2024-02-14T06:16:13;5.90;99.90
49503;DHT22;35409;48.776;9.204;2024-02-14T06:18:39;5.90;99.90
49503;DHT22;35409;48.776;9.204;2024-02-14T06:21:06;5.90;99.90
49503;DHT22;35409;48.776;9.204;2024-02-14T06:23:31;5.80;99.90
49503;DHT22;35409;48.776;9.204;2024-02-14T06:25:58;5.80;99.90
49503;DHT22;35409;48.776;9.204;2024-02-14T06:28:23;5.70;99.90
49503;DHT22;35409;48.776;9.204;2024-02-14T06:30:49;5.70;99.90
49503;DHT22;35409;48.776;9.204;2024-02-14T06:33:15;5.70;99.90
49503;DHT22;35409;48.776;9.204;2024-02-14T06:35:40;5.70;99.90
49503;DHT22;35409;48.776;9.204;2024-02-14T06:38:06;5.60;99.90
49503;DHT22;35409;48.776;9.204;2024-02-14T06:40:32;5.70;99.90
49503;DHT22;35409;48.776;9.204;2024-02-14T06:42:58;5.70;99.90
49503;DHT22;35409;48.776;9.204;2024-02-14T06:45:25;5.70;99.90
49503;DHT22;35409;48.776;9.204;2024-02-14T06:47:51;5.70;99.90
49503;DHT22;35409;48.776;9.204;2024-02-14T06:50:17;5.80;99.90
49503;DHT22;35409;48.776;9.204;2024-02-14T06:52:42;5.80;99.90
49503;DHT22;35409;48.776;9.204;2024-02-14T06:55:08;5.80;99.90
49503;DHT22;35409;48.776;9.204;2024-02-14T06:57:34;5.80;99.90
49503;DHT22;35409;48.776;9.204;2024-02-14T06:59:59;5.90;99.90
49503;DHT22;35409;48.776;9.204;2024-02-14T07:02:25;6.10;99.90
49503;DHT22;35409;48.776;9.204;2024-02-14T07:04:53;6.10;99.90
49503;DHT22;35409;48.776;9.204;2024-02-14T07:07:19;6.10;99.90
49503;DHT22;35409;48.776;9.204;2024-02-14T07:09:45;6.00;99.90
49503;DHT22;35409;48.776;9.204;2024-02-14T07:12:11;6.10;99.90
49503;DHT22;35409;48.776;9.204;2024-02-14T07:14:36;6.00;99.90
49503;DHT22;35409;48.776;9.204;2024-02-14T07:17:02;6.00;99.90
49503;DHT22;35409;48.776;9.204;2024-02-14T07:19:28;6.00;99.90
49503;DHT22;35409;48.776;9.204;2024-02-14T07:21:54;6.00;99.90
49503;DHT22;35409;48.776;9.204;2024-02-14T07:24:19;6.10;99.90
49503;DHT22;35409;48.776;9.204;2024-02-14T07:26:45;6.20;99.90
49503;DHT22;35409;48.776;9.204;2024-02-14T07:29:11;6.30;99.90
49503;DHT22;35409;48.776;9.204;2024-02-14T07:31:37;6.30;99.90
49503;DHT22;35409;48.776;9.204;2024-02-14T07:34:02;6.50;99.90
49503;DHT22;35409;48.776;9.204;2024-02-14T07:36:29;6.70;99.90
49503;DHT22;35409;48.776;9.204;2024-02-14T07:38:55;6.80;99.90
49503;DHT22;35409;48.776;9.204;2024-02-14T07:41:20;7.00;99.90
49503;DHT22;35409;48.776;9.204;2024-02-14T07:43:46;7.00;99.90
49503;DHT22;35409;48.776;9.204;2024-02-14T07:46:17;7.00;99.90
49503;DHT22;35409;48.776;9.204;2024-02-14T07:48:42;7.20;99.90
49503;DHT22;35409;48.776;9.204;2024-02-14T07:51:08;7.30;99.90
49503;DHT22;35409;48.776;9.204;2024-02-14T07:53:34;7.50;99.90
49503;DHT22;35409;48.776;9.204;2024-02-14T07:55:59;7.50;99.90
49503;DHT22;35409;48.776;9.204;2024-02-14T07:58:25;7.60;99.90
49503;DHT22;35409;48.776;9.204;2024-02-14T08:00:50;7.70;99.90
49503;DHT22;35409;48.776;9.204;2024-02-14T08:03:16;7.70;99.90
49503;DHT22;35409;48.776;9.204;2024-02-14T08:05:42;7.60;99.90
49503;DHT22;35409;48.776;9.204;2024-02-14T08:08:08;7.60;99.90
49503;DHT22;35409;48.776;9.204;2024-02-14T08:10:33;7.60;99.90
49503;DHT22;35409;48.776;9.204;2024-02-14T08:13:01;7.60;99.90
49503;DHT22;35409;48.776;9.204;2024-02-14T08:15:26;7.60;99.90
49503;DHT22;35409;48.776;9.204;2024-02-14T08:17:52;7.60;99.90
49503;DHT22;35409;48.776;9.204;2024-02-14T08:20:21;7.70;99.90
49503;DHT22;35409;48.776;9.204;2024-02-14T08:22:46;7.70;99.90
49503;DHT22;35409;48.776;9.204;2024-02-14T08:25:12;7.80;99.90
49503;DHT22;35409;48.776;9.204;2024-02-14T08:27:38;7.80;99.90
49503;DHT22;35409;48.776;9.204;2024-02-14T08:30:04;7.90;99.90
49503;DHT22;35409;48.776;9.204;2024-02-14T08:32:32;7.90;99.90
49503;DHT22;35409;48.776;9.204;2024-02-14T08:34:58;7.90;99.90
49503;DHT22;35409;48.776;9.204;2024-02-14T08:37:24;8.00;99.90
49503;DHT22;35409;48.776;9.204;2024-02-14T08:39:50;8.00;99.90
49503;DHT22;35409;48.776;9.204;2024-02-14T08:42:16;8.20;99.90
49503;DHT22;35409;48.776;9.204;2024-02-14T08:44:41;8.40;99.90
49503;DHT22;35409;48.776;9.204;2024-02-14T08:47:07;8.50;99.90
49503;DHT22;35409;48.776;9.204;2024-02-14T08:49:34;8.70;99.90
49503;DHT22;35409;48.776;9.204;2024-02-14T08:51:59;8.90;99.90
49503;DHT22;35409;48.776;9.204;2024-02-14T08:54:25;9.20;99.90
49503;DHT22;35409;48.776;9.204;2024-02-14T08:56:53;9.40;99.90
49503;DHT22;35409;48.776;9.204;2024-02-14T08:59:21;9.60;99.90
49503;DHT22;35409;48.776;9.204;2024-02-14T09:01:47;9.70;99.90
49503;DHT22;35409;48.776;9.204;2024-02-14T09:04:13;9.90;99.90
49503;DHT22;35409;48.776;9.204;2024-02-14T09:06:39;10.20;99.90
49503;DHT22;35409;48.776;9.204;2024-02-14T09:09:06;10.40;99.90
49503;DHT22;35409;48.776;9.204;2024-02-14T09:11:32;10.50;99.90
49503;DHT22;35409;48.776;9.204;2024-02-14T09:13:58;10.60;99.90
49503;DHT22;35409;48.776;9.204;2024-02-14T09:16:30;10.60;99.90
49503;DHT22;35409;48.776;9.204;2024-02-14T09:18:56;10.50;99.90
49503;DHT22;35409;48.776;9.204;2024-02-14T09:21:21;10.50;99.90
49503;DHT22;35409;48.776;9.204;2024-02-14T09:23:48;10.40;99.90
49503;DHT22;35409;48.776;9.204;2024-02-14T09:26:13;10.30;99.90
49503;DHT22;35409;48.776;9.204;2024-02-14T09:28:43;10.30;99.90
49503;DHT22;35409;48.776;9.204;2024-02-14T09:31:08;10.20;99.90
49503;DHT22;35409;48.776;9.204;2024-02-14T09:33:38;10.20;99.90
49503;DHT22;35409;48.776;9.204;2024-02-14T09:36:04;10.10;99.90
49503;DHT22;35409;48.776;9.204;2024-02-14T09:38:30;10.20;99.90
49503;DHT22;35409;48.776;9.204;2024-02-14T09:43:44;10.60;99.90
49503;DHT22;35409;48.776;9.204;2024-02-14T09:48:37;11.10;99.90
49503;DHT22;35409;48.776;9.204;2024-02-14T09:51:04;11.10;99.90
49503;DHT22;35409;48.776;9.204;2024-02-14T09:53:31;11.20;99.90
49503;DHT22;35409;48.776;9.204;2024-02-14T09:55:59;11.20;99.90
49503;DHT22;35409;48.776;9.204;2024-02-14T09:58:26;11.30;99.90
49503;DHT22;35409;48.776;9.204;2024-02-14T10:00:53;11.30;99.90
49503;DHT22;35409;48.776;9.204;2024-02-14T10:03:19;11.40;99.90
49503;DHT22;35409;48.776;9.204;2024-02-14T10:05:44;11.30;99.90
49503;DHT22;35409;48.776;9.204;2024-02-14T10:08:11;11.30;99.90
49503;DHT22;35409;48.776;9.204;2024-02-14T10:10:37;11.30;99.90
49503;DHT22;35409;48.776;9.204;2024-02-14T10:13:06;11.40;99.90
49503;DHT22;35409;48.776;9.204;2024-02-14T10:15:33;11.50;99.90
49503;DHT22;35409;48.776;9.204;2024-02-14T10:17:59;11.60;99.90
49503;DHT22;35409;48.776;9.204;2024-02-14T10:20:25;11.70;99.90
49503;DHT22;35409;48.776;9.204;2024-02-14T10:22:53;11.70;99.90
49503;DHT22;35409;48.776;9.204;2024-02-14T10:25:25;11.80;99.90
49503;DHT22;35409;48.776;9.204;2024-02-14T10:27:51;11.80;99.90
49503;DHT22;35409;48.776;9.204;2024-02-14T10:30:17;11.80;99.90
49503;DHT22;35409;48.776;9.204;2024-02-14T10:32:42;11.70;99.90
49503;DHT22;35409;48.776;9.204;2024-02-14T10:35:14;11.80;99.90
49503;DHT22;35409;48.776;9.204;2024-02-14T10:37:40;11.90;99.90
49503;DHT22;35409;48.776;9.204;2024-02-14T10:40:06;12.00;99.90
49503;DHT22;35409;48.776;9.204;2024-02-14T10:42:33;12.20;99.90
49503;DHT22;35409;48.776;9.204;2024-02-14T10:44:59;12.20;99.90
49503;DHT22;35409;48.776;9.204;2024-02-14T10:47:30;12.30;99.90
49503;DHT22;35409;48.776;9.204;2024-02-14T10:50:05;12.30;99.90
49503;DHT22;35409;48.776;9.204;2024-02-14T10:52:32;12.50;99.90
49503;DHT22;35409;48.776;9.204;2024-02-14T10:55:02;12.70;99.90
49503;DHT22;35409;48.776;9.204;2024-02-14T10:57:29;12.80;99.90
49503;DHT22;35409;48.776;9.204;2024-02-14T10:59:55;12.90;99.90
49503;DHT22;35409;48.776;9.204;2024-02-14T11:02:23;13.00;99.90
49503;DHT22;35409;48.776;9.204;2024-02-14T11:04:50;13.20;99.90
49503;DHT22;35409;48.776;9.204;2024-02-14T11:07:20;13.30;99.90
49503;DHT22;35409;48.776;9.204;2024-02-14T11:09:59;13.50;99.90
49503;DHT22;35409;48.776;9.204;2024-02-14T11:12:26;13.60;99.90
49503;DHT22;35409;48.776;9.204;2024-02-14T11:14:57;14.10;99.90
49503;DHT22;35409;48.776;9.204;2024-02-14T11:17:26;14.30;99.90
49503;DHT22;35409;48.776;9.204;2024-02-14T11:19:53;14.30;99.90
49503;DHT22;35409;48.776;9.204;2024-02-14T11:22:20;14.30;99.90
49503;DHT22;35409;48.776;9.204;2024-02-14T11:24:49;14.30;99.90
49503;DHT22;35409;48.776;9.204;2024-02-14T11:27:17;14.20;99.90
49503;DHT22;35409;48.776;9.204;2024-02-14T11:29:52;14.10;99.90
49503;DHT22;35409;48.776;9.204;2024-02-14T11:32:18;14.10;99.90
49503;DHT22;35409;48.776;9.204;2024-02-14T11:34:54;14.00;99.90
49503;DHT22;35409;48.776;9.204;2024-02-14T11:37:27;13.90;99.90
49503;DHT22;35409;48.776;9.204;2024-02-14T11:39:53;13.90;99.90
49503;DHT22;35409;48.776;9.204;2024-02-14T11:42:21;13.80;99.90
49503;DHT22;35409;48.776;9.204;2024-02-14T11:44:46;13.90;99.90
49503;DHT22;35409;48.776;9.204;2024-02-14T11:47:13;13.90;99.90
49503;DHT22;35409;48.776;9.204;2024-02-14T11:49:39;13.90;99.90
49503;DHT22;35409;48.776;9.204;2024-02-14T11:52:05;13.90;99.90
49503;DHT22;35409;48.776;9.204;2024-02-14T11:54:34;13.80;99.90
49503;DHT22;35409;48.776;9.204;2024-02-14T11:57:00;13.80;99.90
49503;DHT22;35409;48.776;9.204;2024-02-14T11:59:26;13.80;99.90
49503;DHT22;35409;48.776;9.204;2024-02-14T12:01:52;13.90;99.90
49503;DHT22;35409;48.776;9.204;2024-02-14T12:04:19;13.90;99.90
49503;DHT22;35409;48.776;9.204;2024-02-14T12:06:45;14.00;99.90
49503;DHT22;35409;48.776;9.204;2024-02-14T12:09:11;14.00;99.90
49503;DHT22;35409;48.776;9.204;2024-02-14T12:11:39;14.00;99.90
49503;DHT22;35409;48.776;9.204;2024-02-14T12:14:09;13.90;99.90
49503;DHT22;35409;48.776;9.204;2024-02-14T12:16:35;13.90;99.90
49503;DHT22;35409;48.776;9.204;2024-02-14T12:19:09;14.00;99.90
49503;DHT22;35409;48.776;9.204;2024-02-14T12:21:41;13.90;99.90
49503;DHT22;35409;48.776;9.204;2024-02-14T12:24:08;14.00;99.90
49503;DHT22;35409;48.776;9.204;2024-02-14T12:26:35;14.10;99.90
49503;DHT22;35409;48.776;9.204;2024-02-14T12:29:03;14.30;99.90
49503;DHT22;35409;48.776;9.204;2024-02-14T12:31:36;14.50;99.90
49503;DHT22;35409;48.776;9.204;2024-02-14T12:34:03;14.70;99.90
49503;DHT22;35409;48.776;9.204;2024-02-14T12:36:30;14.70;99.90
49503;DHT22;35409;48.776;9.204;2024-02-14T12:38:56;14.60;99.90
49503;DHT22;35409;48.776;9.204;2024-02-14T12:41:21;14.50;99.90
49503;DHT22;35409;48.776;9.204;2024-02-14T12:43:49;14.60;99.90
49503;DHT22;35409;48.776;9.204;2024-02-14T12:46:15;14.50;99.90
49503;DHT22;35409;48.776;9.204;2024-02-14T12:48:40;14.50;99.90
49503;DHT22;35409;48.776;9.204;2024-02-14T12:51:07;14.70;99.90
49503;DHT22;35409;48.776;9.204;2024-02-14T12:53:33;14.80;99.90
49503;DHT22;35409;48.776;9.204;2024-02-14T12:55:59;15.00;99.90
49503;DHT22;35409;48.776;9.204;2024-02-14T12:58:25;15.20;99.90
49503;DHT22;35409;48.776;9.204;2024-02-14T13:00:50;15.40;99.90
49503;DHT22;35409;48.776;9.204;2024-02-14T13:03:16;15.60;99.90
49503;DHT22;35409;48.776;9.204;2024-02-14T13:05:42;15.70;99.90
49503;DHT22;35409;48.776;9.204;2024-02-14T13:08:08;15.80;99.90
49503;DHT22;35409;48.776;9.204;2024-02-14T13:10:37;15.90;99.90
49503;DHT22;35409;48.776;9.204;2024-02-14T13:13:02;15.90;99.90
49503;DHT22;35409;48.776;9.204;2024-02-14T13:15:28;15.80;99.90
49503;DHT22;35409;48.776;9.204;2024-02-14T13:17:54;15.70;99.90
49503;DHT22;35409;48.776;9.204;2024-02-14T13:20:21;15.70;99.90
49503;DHT22;35409;48.776;9.204;2024-02-14T13:22:47;15.50;99.90
49503;DHT22;35409;48.776;9.204;2024-02-14T13:25:13;15.50;99.90
49503;DHT22;35409;48.776;9.204;2024-02-14T13:27:40;15.50;99.90
49503;DHT22;35409;48.776;9.204;2024-02-14T13:30:06;15.50;99.90
49503;DHT22;35409;48.776;9.204;2024-02-14T13:32:33;15.50;99.90
49503;DHT22;35409;48.776;9.204;2024-02-14T13:34:58;15.50;99.90
49503;DHT22;35409;48.776;9.204;2024-02-14T13:37:24;15.50;99.90
49503;DHT22;35409;48.776;9.204;2024-02-14T13:39:51;15.50;99.90
49503;DHT22;35409;48.776;9.204;2024-02-14T13:42:16;15.50;99.90
49503;DHT22;35409;48.776;9.204;2024-02-14T13:44:42;15.50;99.90
49503;DHT22;35409;48.776;9.204;2024-02-14T13:47:08;15.50;99.90
49503;DHT22;35409;48.776;9.204;2024-02-14T13:49:33;15.60;99.90
49503;DHT22;35409;48.776;9.204;2024-02-14T13:51:59;15.60;99.90
49503;DHT22;35409;48.776;9.204;2024-02-14T13:54:25;15.60;99.90
49503;DHT22;35409;48.776;9.204;2024-02-14T13:56:51;15.70;99.90
49503;DHT22;35409;48.776;9.204;2024-02-14T13:59:17;15.80;99.90
49503;DHT22;35409;48.776;9.204;2024-02-14T14:01:45;15.80;99.90
49503;DHT22;35409;48.776;9.204;2024-02-14T14:04:11;15.90;99.90
49503;DHT22;35409;48.776;9.204;2024-02-14T14:06:38;15.80;99.90
49503;DHT22;35409;48.776;9.204;2024-02-14T14:09:04;15.90;99.90
49503;DHT22;35409;48.776;9.204;2024-02-14T14:11:33;15.80;99.90
49503;DHT22;35409;48.776;9.204;2024-02-14T14:13:58;15.70;99.90
49503;DHT22;35409;48.776;9.204;2024-02-14T14:16:25;15.70;99.90
49503;DHT22;35409;48.776;9.204;2024-02-14T14:18:51;15.60;99.90
49503;DHT22;35409;48.776;9.204;2024-02-14T14:21:17;15.50;99.90
49503;DHT22;35409;48.776;9.204;2024-02-14T14:23:43;15.40;99.90
49503;DHT22;35409;48.776;9.204;2024-02-14T14:26:09;15.40;99.90
49503;DHT22;35409;48.776;9.204;2024-02-14T14:28:35;15.40;99.90
49503;DHT22;35409;48.776;9.204;2024-02-14T14:31:01;15.40;99.90
49503;DHT22;35409;48.776;9.204;2024-02-14T14:33:27;15.40;99.90
49503;DHT22;35409;48.776;9.204;2024-02-14T14:35:53;15.40;99.90
49503;DHT22;35409;48.776;9.204;2024-02-14T14:38:20;15.50;99.90
49503;DHT22;35409;48.776;9.204;2024-02-14T14:40:47;15.50;99.90
49503;DHT22;35409;48.776;9.204;2024-02-14T14:43:13;15.50;99.90
49503;DHT22;35409;48.776;9.204;2024-02-14T14:45:39;15.40;99.90
49503;DHT22;35409;48.776;9.204;2024-02-14T14:48:06;15.40;99.90
49503;DHT22;35409;48.776;9.204;2024-02-14T14:50:33;15.20;99.90
49503;DHT22;35409;48.776;9.204;2024-02-14T14:52:58;15.20;99.90
49503;DHT22;35409;48.776;9.204;2024-02-14T14:55:25;15.10;99.90
49503;DHT22;35409;48.776;9.204;2024-02-14T14:57:50;14.90;99.90
49503;DHT22;35409;48.776;9.204;2024-02-14T15:00:17;14.80;99.90
49503;DHT22;35409;48.776;9.204;2024-02-14T15:02:43;14.80;99.90
49503;DHT22;35409;48.776;9.204;2024-02-14T15:05:10;14.70;99.90
49503;DHT22;35409;48.776;9.204;2024-02-14T15:07:39;14.70;99.90
49503;DHT22;35409;48.776;9.204;2024-02-14T15:10:06;14.60;99.90
49503;DHT22;35409;48.776;9.204;2024-02-14T15:12:33;14.60;99.90
49503;DHT22;35409;48.776;9.204;2024-02-14T15:15:02;14.60;99.90
49503;DHT22;35409;48.776;9.204;2024-02-14T15:17:29;14.60;99.90
49503;DHT22;35409;48.776;9.204;2024-02-14T15:19:55;14.50;99.90
49503;DHT22;35409;48.776;9.204;2024-02-14T15:22:21;14.50;99.90
49503;DHT22;35409;48.776;9.204;2024-02-14T15:24:46;14.40;99.90
49503;DHT22;35409;48.776;9.204;2024-02-14T15:27:12;14.40;99.90
49503;DHT22;35409;48.776;9.204;2024-02-14T15:29:47;14.50;99.90
49503;DHT22;35409;48.776;9.204;2024-02-14T15:32:32;14.60;99.90
49503;DHT22;35409;48.776;9.204;2024-02-14T15:35:16;14.70;99.90
49503;DHT22;35409;48.776;9.204;2024-02-14T15:37:41;14.70;99.90
49503;DHT22;35409;48.776;9.204;2024-02-14T15:40:08;14.80;99.90
49503;DHT22;35409;48.776;9.204;2024-02-14T15:42:34;14.70;99.90
49503;DHT22;35409;48.776;9.204;2024-02-14T15:44:59;14.70;99.90